sensor_id;sensor_type;location;lat;lon;timestamp;P1;durP1;ratioP1;P2;durP2;ratioP2
18455;SDS011;9357;49.900;8.208;2023-10-09T00:00:08;10.93;;;5.97;;
18455;SDS011;9357;49.900;8.208;2023-10-09T00:01:59;10.70;;;5.70;;
18455;SDS011;9357;49.900;8.208;2023-10-09T00:03:33;9.97;;;5.93;;
18455;SDS011;9357;49.900;8.208;2023-10-09T00:05:08;10.43;;;5.63;;
18455;SDS011;9357;49.900;8.208;2023-10-09T00:06:50;6.37;;;5.23;;
18455;SDS011;9357;49.900;8.208;2023-10-09T00:08:25;8.83;;;5.63;;
18455;SDS011;9357;49.900;8.208;2023-10-09T00:10:01;7.83;;;5.20;;
18455;SDS011;9357;49.900;8.208;2023-10-09T00:11:43;8.30;;;5.50;;
18455;SDS011;9357;49.900;8.208;2023-10-09T00:13:16;11.97;;;6.10;;
18455;SDS011;9357;49.900;8.208;2023-10-09T00:14:49;10.80;;;6.30;;
18455;SDS011;9357;49.900;8.208;2023-10-09T00:16:22;8.93;;;6.30;;
18455;SDS011;9357;49.900;8.208;2023-10-09T00:18:04;11.93;;;7.00;;
18455;SDS011;9357;49.900;8.208;2023-10-09T00:19:45;12.37;;;7.40;;
18455;SDS011;9357;49.900;8.208;2023-10-09T00:21:21;13.47;;;7.73;;
18455;SDS011;9357;49.900;8.208;2023-10-09T00:22:53;14.40;;;8.20;;
18455;SDS011;9357;49.900;8.208;2023-10-09T00:24:27;11.60;;;6.67;;
18455;SDS011;9357;49.900;8.208;2023-10-09T00:25:59;12.33;;;6.57;;
18455;SDS011;9357;49.900;8.208;2023-10-09T00:27:42;14.33;;;7.50;;
18455;SDS011;9357;49.900;8.208;2023-10-09T00:29:14;12.93;;;7.77;;
18455;SDS011;9357;49.900;8.208;2023-10-09T00:30:52;13.90;;;8.37;;
18455;SDS011;9357;49.900;8.208;2023-10-09T00:32:24;13.80;;;8.07;;
18455;SDS011;9357;49.900;8.208;2023-10-09T00:33:58;10.50;;;7.73;;
18455;SDS011;9357;49.900;8.208;2023-10-09T00:35:51;12.80;;;7.20;;
18455;SDS011;9357;49.900;8.208;2023-10-09T00:37:26;12.07;;;7.43;;
18455;SDS011;9357;49.900;8.208;2023-10-09T00:39:05;11.73;;;6.90;;
18455;SDS011;9357;49.900;8.208;2023-10-09T00:40:48;11.47;;;6.90;;
18455;SDS011;9357;49.900;8.208;2023-10-09T00:42:28;10.67;;;6.73;;
18455;SDS011;9357;49.900;8.208;2023-10-09T00:44:04;10.50;;;7.03;;
18455;SDS011;9357;49.900;8.208;2023-10-09T00:45:39;15.07;;;8.00;;
18455;SDS011;9357;49.900;8.208;2023-10-09T00:47:15;13.77;;;7.60;;
18455;SDS011;9357;49.900;8.208;2023-10-09T00:48:54;11.17;;;7.90;;
18455;SDS011;9357;49.900;8.208;2023-10-09T00:50:28;13.07;;;8.00;;
18455;SDS011;9357;49.900;8.208;2023-10-09T00:52:08;12.10;;;8.40;;
18455;SDS011;9357;49.900;8.208;2023-10-09T00:53:54;12.90;;;7.77;;
18455;SDS011;9357;49.900;8.208;2023-10-09T00:55:31;16.93;;;8.83;;
18455;SDS011;9357;49.900;8.208;2023-10-09T00:57:09;13.80;;;7.47;;
18455;SDS011;9357;49.900;8.208;2023-10-09T00:58:45;10.60;;;7.70;;
18455;SDS011;9357;49.900;8.208;2023-10-09T01:00:17;12.60;;;8.17;;
18455;SDS011;9357;49.900;8.208;2023-10-09T01:02:04;16.53;;;9.20;;
18455;SDS011;9357;49.900;8.208;2023-10-09T01:03:38;14.70;;;9.67;;
18455;SDS011;9357;49.900;8.208;2023-10-09T01:05:12;15.17;;;10.27;;
18455;SDS011;9357;49.900;8.208;2023-10-09T01:06:51;16.53;;;9.63;;
18455;SDS011;9357;49.900;8.208;2023-10-09T01:08:39;14.80;;;9.70;;
18455;SDS011;9357;49.900;8.208;2023-10-09T01:10:18;19.00;;;9.77;;
18455;SDS011;9357;49.900;8.208;2023-10-09T01:11:50;14.53;;;9.40;;
18455;SDS011;9357;49.900;8.208;2023-10-09T01:13:35;15.03;;;9.60;;
18455;SDS011;9357;49.900;8.208;2023-10-09T01:15:23;14.53;;;9.70;;
18455;SDS011;9357;49.900;8.208;2023-10-09T01:17:14;18.67;;;10.40;;
18455;SDS011;9357;49.900;8.208;2023-10-09T01:19:05;15.27;;;10.40;;
18455;SDS011;9357;49.900;8.208;2023-10-09T01:20:44;20.70;;;11.03;;
18455;SDS011;9357;49.900;8.208;2023-10-09T01:22:16;15.93;;;10.50;;
18455;SDS011;9357;49.900;8.208;2023-10-09T01:23:54;15.37;;;10.13;;
18455;SDS011;9357;49.900;8.208;2023-10-09T01:25:39;16.37;;;9.13;;
18455;SDS011;9357;49.900;8.208;2023-10-09T01:27:15;12.93;;;9.40;;
18455;SDS011;9357;49.900;8.208;2023-10-09T01:28:48;15.43;;;9.93;;
18455;SDS011;9357;49.900;8.208;2023-10-09T01:30:20;17.23;;;9.40;;
18455;SDS011;9357;49.900;8.208;2023-10-09T01:31:54;14.73;;;9.07;;
18455;SDS011;9357;49.900;8.208;2023-10-09T01:33:32;15.63;;;8.73;;
18455;SDS011;9357;49.900;8.208;2023-10-09T01:35:07;12.30;;;8.40;;
18455;SDS011;9357;49.900;8.208;2023-10-09T01:36:51;15.37;;;9.13;;
18455;SDS011;9357;49.900;8.208;2023-10-09T01:38:26;15.67;;;9.00;;
18455;SDS011;9357;49.900;8.208;2023-10-09T01:40:05;13.57;;;8.80;;
18455;SDS011;9357;49.900;8.208;2023-10-09T01:41:56;11.67;;;8.53;;
18455;SDS011;9357;49.900;8.208;2023-10-09T01:43:36;16.63;;;8.93;;
18455;SDS011;9357;49.900;8.208;2023-10-09T01:45:10;14.40;;;9.37;;
18455;SDS011;9357;49.900;8.208;2023-10-09T01:46:47;13.03;;;9.00;;
18455;SDS011;9357;49.900;8.208;2023-10-09T01:48:19;21.03;;;9.47;;
18455;SDS011;9357;49.900;8.208;2023-10-09T01:49:55;18.70;;;9.87;;
18455;SDS011;9357;49.900;8.208;2023-10-09T01:51:29;13.97;;;9.03;;
18455;SDS011;9357;49.900;8.208;2023-10-09T01:53:05;15.80;;;10.30;;
18455;SDS011;9357;49.900;8.208;2023-10-09T01:54:39;16.70;;;9.87;;
18455;SDS011;9357;49.900;8.208;2023-10-09T01:56:13;14.90;;;8.60;;
18455;SDS011;9357;49.900;8.208;2023-10-09T01:57:47;14.63;;;9.50;;
18455;SDS011;9357;49.900;8.208;2023-10-09T01:59:19;11.97;;;9.00;;
18455;SDS011;9357;49.900;8.208;2023-10-09T02:00:52;16.13;;;8.93;;
18455;SDS011;9357;49.900;8.208;2023-10-09T02:02:27;13.27;;;8.63;;
18455;SDS011;9357;49.900;8.208;2023-10-09T02:04:04;14.43;;;9.00;;
18455;SDS011;9357;49.900;8.208;2023-10-09T02:05:45;16.63;;;9.40;;
18455;SDS011;9357;49.900;8.208;2023-10-09T02:07:17;13.13;;;8.47;;
18455;SDS011;9357;49.900;8.208;2023-10-09T02:08:54;12.93;;;8.60;;
18455;SDS011;9357;49.900;8.208;2023-10-09T02:10:27;15.37;;;9.03;;
18455;SDS011;9357;49.900;8.208;2023-10-09T02:12:05;15.63;;;9.33;;
18455;SDS011;9357;49.900;8.208;2023-10-09T02:13:37;11.80;;;8.13;;
18455;SDS011;9357;49.900;8.208;2023-10-09T02:15:13;15.77;;;9.00;;
18455;SDS011;9357;49.900;8.208;2023-10-09T02:16:46;12.20;;;8.40;;
18455;SDS011;9357;49.900;8.208;2023-10-09T02:18:48;13.00;;;8.50;;
18455;SDS011;9357;49.900;8.208;2023-10-09T02:20:25;12.67;;;8.00;;
18455;SDS011;9357;49.900;8.208;2023-10-09T02:22:02;15.60;;;8.80;;
18455;SDS011;9357;49.900;8.208;2023-10-09T02:23:43;12.40;;;7.77;;
18455;SDS011;9357;49.900;8.208;2023-10-09T02:25:23;15.53;;;8.30;;
18455;SDS011;9357;49.900;8.208;2023-10-09T02:27:00;10.17;;;7.67;;
18455;SDS011;9357;49.900;8.208;2023-10-09T02:28:38;13.80;;;7.70;;
18455;SDS011;9357;49.900;8.208;2023-10-09T02:30:15;12.63;;;7.40;;
18455;SDS011;9357;49.900;8.208;2023-10-09T02:31:47;12.47;;;7.47;;
18455;SDS011;9357;49.900;8.208;2023-10-09T02:33:23;10.03;;;6.80;;
18455;SDS011;9357;49.900;8.208;2023-10-09T02:35:01;9.73;;;6.63;;
18455;SDS011;9357;49.900;8.208;2023-10-09T02:36:41;10.70;;;6.70;;
18455;SDS011;9357;49.900;8.208;2023-10-09T02:38:14;14.30;;;7.30;;
18455;SDS011;9357;49.900;8.208;2023-10-09T02:39:46;13.83;;;6.83;;
18455;SDS011;9357;49.900;8.208;2023-10-09T02:41:19;13.03;;;6.67;;
18455;SDS011;9357;49.900;8.208;2023-10-09T02:42:54;11.57;;;6.70;;
18455;SDS011;9357;49.900;8.208;2023-10-09T02:44:27;10.77;;;6.20;;
18455;SDS011;9357;49.900;8.208;2023-10-09T02:46:01;11.07;;;6.23;;
18455;SDS011;9357;49.900;8.208;2023-10-09T02:47:45;10.40;;;6.03;;
18455;SDS011;9357;49.900;8.208;2023-10-09T02:49:19;8.77;;;6.23;;
18455;SDS011;9357;49.900;8.208;2023-10-09T02:50:53;11.97;;;6.50;;
18455;SDS011;9357;49.900;8.208;2023-10-09T02:52:28;9.80;;;6.00;;
18455;SDS011;9357;49.900;8.208;2023-10-09T02:54:10;12.57;;;5.87;;
18455;SDS011;9357;49.900;8.208;2023-10-09T02:56:05;11.27;;;5.93;;
18455;SDS011;9357;49.900;8.208;2023-10-09T02:57:43;8.53;;;5.30;;
18455;SDS011;9357;49.900;8.208;2023-10-09T02:59:17;9.73;;;5.37;;
18455;SDS011;9357;49.900;8.208;2023-10-09T03:00:52;9.30;;;5.37;;
18455;SDS011;9357;49.900;8.208;2023-10-09T03:02:25;10.77;;;5.27;;
18455;SDS011;9357;49.900;8.208;2023-10-09T03:03:57;9.37;;;5.50;;
18455;SDS011;9357;49.900;8.208;2023-10-09T03:05:34;14.67;;;5.57;;
18455;SDS011;9357;49.900;8.208;2023-10-09T03:07:10;7.77;;;5.30;;
18455;SDS011;9357;49.900;8.208;2023-10-09T03:08:45;10.47;;;5.20;;
18455;SDS011;9357;49.900;8.208;2023-10-09T03:10:18;12.50;;;5.50;;
18455;SDS011;9357;49.900;8.208;2023-10-09T03:11:52;8.67;;;5.57;;
18455;SDS011;9357;49.900;8.208;2023-10-09T03:13:25;13.70;;;6.17;;
18455;SDS011;9357;49.900;8.208;2023-10-09T03:15:00;9.67;;;6.33;;
18455;SDS011;9357;49.900;8.208;2023-10-09T03:16:33;10.93;;;5.97;;
18455;SDS011;9357;49.900;8.208;2023-10-09T03:18:07;11.40;;;6.10;;
18455;SDS011;9357;49.900;8.208;2023-10-09T03:19:40;11.37;;;5.97;;
18455;SDS011;9357;49.900;8.208;2023-10-09T03:21:15;12.60;;;6.17;;
18455;SDS011;9357;49.900;8.208;2023-10-09T03:22:49;12.40;;;6.13;;
18455;SDS011;9357;49.900;8.208;2023-10-09T03:24:22;11.27;;;6.10;;
18455;SDS011;9357;49.900;8.208;2023-10-09T03:25:54;10.07;;;5.97;;
18455;SDS011;9357;49.900;8.208;2023-10-09T03:27:50;9.67;;;5.97;;
18455;SDS011;9357;49.900;8.208;2023-10-09T03:29:24;11.40;;;6.50;;
18455;SDS011;9357;49.900;8.208;2023-10-09T03:30:56;9.47;;;6.00;;
18455;SDS011;9357;49.900;8.208;2023-10-09T03:32:30;9.83;;;5.87;;
18455;SDS011;9357;49.900;8.208;2023-10-09T03:34:04;12.73;;;6.00;;
18455;SDS011;9357;49.900;8.208;2023-10-09T03:35:37;9.47;;;5.87;;
18455;SDS011;9357;49.900;8.208;2023-10-09T03:37:10;12.20;;;6.00;;
18455;SDS011;9357;49.900;8.208;2023-10-09T03:38:54;11.90;;;6.03;;
18455;SDS011;9357;49.900;8.208;2023-10-09T03:40:29;9.37;;;5.77;;
18455;SDS011;9357;49.900;8.208;2023-10-09T03:42:03;11.40;;;6.00;;
18455;SDS011;9357;49.900;8.208;2023-10-09T03:43:37;9.13;;;6.10;;
18455;SDS011;9357;49.900;8.208;2023-10-09T03:45:11;8.67;;;5.80;;
18455;SDS011;9357;49.900;8.208;2023-10-09T03:46:49;9.90;;;6.13;;
18455;SDS011;9357;49.900;8.208;2023-10-09T03:48:23;10.40;;;6.13;;
18455;SDS011;9357;49.900;8.208;2023-10-09T03:49:57;10.93;;;5.70;;
18455;SDS011;9357;49.900;8.208;2023-10-09T03:51:36;11.97;;;6.20;;
18455;SDS011;9357;49.900;8.208;2023-10-09T03:53:10;8.97;;;5.43;;
18455;SDS011;9357;49.900;8.208;2023-10-09T03:54:45;10.97;;;5.73;;
18455;SDS011;9357;49.900;8.208;2023-10-09T03:56:18;10.37;;;5.10;;
18455;SDS011;9357;49.900;8.208;2023-10-09T03:57:52;11.17;;;5.60;;
18455;SDS011;9357;49.900;8.208;2023-10-09T03:59:24;7.90;;;5.40;;
18455;SDS011;9357;49.900;8.208;2023-10-09T04:01:06;10.40;;;5.60;;
18455;SDS011;9357;49.900;8.208;2023-10-09T04:02:39;8.63;;;5.47;;
18455;SDS011;9357;49.900;8.208;2023-10-09T04:04:11;9.33;;;4.93;;
18455;SDS011;9357;49.900;8.208;2023-10-09T04:05:46;12.33;;;5.93;;
18455;SDS011;9357;49.900;8.208;2023-10-09T04:07:18;10.10;;;5.40;;
18455;SDS011;9357;49.900;8.208;2023-10-09T04:08:52;8.13;;;5.33;;
18455;SDS011;9357;49.900;8.208;2023-10-09T04:10:27;11.50;;;5.40;;
18455;SDS011;9357;49.900;8.208;2023-10-09T04:12:15;9.87;;;4.97;;
18455;SDS011;9357;49.900;8.208;2023-10-09T04:13:57;9.27;;;5.03;;
18455;SDS011;9357;49.900;8.208;2023-10-09T04:15:31;9.63;;;4.90;;
18455;SDS011;9357;49.900;8.208;2023-10-09T04:17:06;7.10;;;5.10;;
18455;SDS011;9357;49.900;8.208;2023-10-09T04:19:00;8.90;;;4.80;;
18455;SDS011;9357;49.900;8.208;2023-10-09T04:20:39;7.93;;;5.00;;
18455;SDS011;9357;49.900;8.208;2023-10-09T04:22:29;11.40;;;5.20;;
18455;SDS011;9357;49.900;8.208;2023-10-09T04:24:10;8.87;;;5.20;;
18455;SDS011;9357;49.900;8.208;2023-10-09T04:25:56;8.47;;;4.77;;
18455;SDS011;9357;49.900;8.208;2023-10-09T04:27:31;7.53;;;4.63;;
18455;SDS011;9357;49.900;8.208;2023-10-09T04:29:07;6.80;;;4.90;;
18455;SDS011;9357;49.900;8.208;2023-10-09T04:30:41;9.57;;;4.87;;
18455;SDS011;9357;49.900;8.208;2023-10-09T04:32:15;7.30;;;4.87;;
18455;SDS011;9357;49.900;8.208;2023-10-09T04:33:49;8.10;;;4.80;;
18455;SDS011;9357;49.900;8.208;2023-10-09T04:35:49;8.60;;;4.40;;
18455;SDS011;9357;49.900;8.208;2023-10-09T04:37:42;7.03;;;4.43;;
18455;SDS011;9357;49.900;8.208;2023-10-09T04:39:16;6.70;;;4.60;;
18455;SDS011;9357;49.900;8.208;2023-10-09T04:41:08;7.20;;;5.00;;
18455;SDS011;9357;49.900;8.208;2023-10-09T04:42:41;11.23;;;5.13;;
18455;SDS011;9357;49.900;8.208;2023-10-09T04:44:29;13.03;;;5.07;;
18455;SDS011;9357;49.900;8.208;2023-10-09T04:46:07;10.43;;;4.90;;
18455;SDS011;9357;49.900;8.208;2023-10-09T04:47:43;9.83;;;4.87;;
18455;SDS011;9357;49.900;8.208;2023-10-09T04:49:29;9.47;;;4.67;;
18455;SDS011;9357;49.900;8.208;2023-10-09T04:51:05;8.43;;;4.77;;
18455;SDS011;9357;49.900;8.208;2023-10-09T04:53:05;9.40;;;4.40;;
18455;SDS011;9357;49.900;8.208;2023-10-09T04:54:53;7.97;;;4.43;;
18455;SDS011;9357;49.900;8.208;2023-10-09T04:56:45;8.73;;;4.20;;
18455;SDS011;9357;49.900;8.208;2023-10-09T04:58:24;9.30;;;4.73;;
18455;SDS011;9357;49.900;8.208;2023-10-09T04:59:56;6.83;;;4.63;;
18455;SDS011;9357;49.900;8.208;2023-10-09T05:01:30;8.13;;;4.60;;
18455;SDS011;9357;49.900;8.208;2023-10-09T05:03:15;6.83;;;4.07;;
18455;SDS011;9357;49.900;8.208;2023-10-09T05:04:59;10.73;;;4.77;;
18455;SDS011;9357;49.900;8.208;2023-10-09T05:06:47;7.87;;;4.33;;
18455;SDS011;9357;49.900;8.208;2023-10-09T05:08:28;8.63;;;4.30;;
18455;SDS011;9357;49.900;8.208;2023-10-09T05:10:04;11.00;;;4.27;;
18455;SDS011;9357;49.900;8.208;2023-10-09T05:11:47;9.70;;;4.90;;
18455;SDS011;9357;49.900;8.208;2023-10-09T05:13:25;10.17;;;4.30;;
18455;SDS011;9357;49.900;8.208;2023-10-09T05:15:14;10.50;;;4.50;;
18455;SDS011;9357;49.900;8.208;2023-10-09T05:16:46;7.53;;;4.70;;
18455;SDS011;9357;49.900;8.208;2023-10-09T05:18:25;8.20;;;4.67;;
18455;SDS011;9357;49.900;8.208;2023-10-09T05:19:58;8.87;;;4.27;;
18455;SDS011;9357;49.900;8.208;2023-10-09T05:21:45;10.20;;;4.80;;
18455;SDS011;9357;49.900;8.208;2023-10-09T05:23:18;8.90;;;4.37;;
18455;SDS011;9357;49.900;8.208;2023-10-09T05:24:57;9.07;;;4.57;;
18455;SDS011;9357;49.900;8.208;2023-10-09T05:26:30;6.47;;;3.87;;
18455;SDS011;9357;49.900;8.208;2023-10-09T05:28:23;8.60;;;3.90;;
18455;SDS011;9357;49.900;8.208;2023-10-09T05:30:03;7.57;;;4.50;;
18455;SDS011;9357;49.900;8.208;2023-10-09T05:31:56;8.57;;;4.17;;
18455;SDS011;9357;49.900;8.208;2023-10-09T05:33:34;8.87;;;4.53;;
18455;SDS011;9357;49.900;8.208;2023-10-09T05:35:08;8.90;;;4.10;;
18455;SDS011;9357;49.900;8.208;2023-10-09T05:36:46;10.63;;;4.53;;
18455;SDS011;9357;49.900;8.208;2023-10-09T05:38:19;6.83;;;4.13;;
18455;SDS011;9357;49.900;8.208;2023-10-09T05:39:55;11.43;;;4.73;;
18455;SDS011;9357;49.900;8.208;2023-10-09T05:41:49;7.03;;;4.37;;
18455;SDS011;9357;49.900;8.208;2023-10-09T05:43:33;6.67;;;4.47;;
18455;SDS011;9357;49.900;8.208;2023-10-09T05:45:23;8.20;;;4.37;;
18455;SDS011;9357;49.900;8.208;2023-10-09T05:47:13;12.03;;;4.67;;
18455;SDS011;9357;49.900;8.208;2023-10-09T05:49:06;7.13;;;4.57;;
18455;SDS011;9357;49.900;8.208;2023-10-09T05:50:51;7.93;;;4.60;;
18455;SDS011;9357;49.900;8.208;2023-10-09T05:52:43;8.60;;;4.77;;
18455;SDS011;9357;49.900;8.208;2023-10-09T05:54:33;8.67;;;4.70;;
18455;SDS011;9357;49.900;8.208;2023-10-09T05:56:46;6.93;;;4.57;;
18455;SDS011;9357;49.900;8.208;2023-10-09T05:58:37;10.10;;;4.77;;
18455;SDS011;9357;49.900;8.208;2023-10-09T06:00:28;8.87;;;4.37;;
18455;SDS011;9357;49.900;8.208;2023-10-09T06:02:18;9.13;;;4.60;;
18455;SDS011;9357;49.900;8.208;2023-10-09T06:04:26;11.93;;;5.67;;
18455;SDS011;9357;49.900;8.208;2023-10-09T06:06:21;7.70;;;4.93;;
18455;SDS011;9357;49.900;8.208;2023-10-09T06:08:04;8.30;;;4.93;;
18455;SDS011;9357;49.900;8.208;2023-10-09T06:09:38;8.70;;;4.97;;
18455;SDS011;9357;49.900;8.208;2023-10-09T06:11:28;10.20;;;4.90;;
18455;SDS011;9357;49.900;8.208;2023-10-09T06:13:13;8.40;;;4.93;;
18455;SDS011;9357;49.900;8.208;2023-10-09T06:15:10;9.97;;;4.97;;
18455;SDS011;9357;49.900;8.208;2023-10-09T06:17:03;9.43;;;4.97;;
18455;SDS011;9357;49.900;8.208;2023-10-09T06:18:54;9.80;;;4.40;;
18455;SDS011;9357;49.900;8.208;2023-10-09T06:20:39;12.03;;;4.93;;
18455;SDS011;9357;49.900;8.208;2023-10-09T06:22:33;10.23;;;4.13;;
18455;SDS011;9357;49.900;8.208;2023-10-09T06:24:23;9.63;;;4.47;;
18455;SDS011;9357;49.900;8.208;2023-10-09T06:25:57;6.23;;;4.00;;
18455;SDS011;9357;49.900;8.208;2023-10-09T06:27:51;9.90;;;4.57;;
18455;SDS011;9357;49.900;8.208;2023-10-09T06:29:30;7.83;;;4.40;;
18455;SDS011;9357;49.900;8.208;2023-10-09T06:31:07;6.93;;;4.20;;
18455;SDS011;9357;49.900;8.208;2023-10-09T06:32:54;9.77;;;4.57;;
18455;SDS011;9357;49.900;8.208;2023-10-09T06:34:36;10.23;;;4.53;;
18455;SDS011;9357;49.900;8.208;2023-10-09T06:36:15;11.47;;;4.70;;
18455;SDS011;9357;49.900;8.208;2023-10-09T06:37:50;7.87;;;4.43;;
18455;SDS011;9357;49.900;8.208;2023-10-09T06:39:53;9.37;;;4.77;;
18455;SDS011;9357;49.900;8.208;2023-10-09T06:41:44;7.90;;;4.27;;
18455;SDS011;9357;49.900;8.208;2023-10-09T06:43:37;7.33;;;4.17;;
18455;SDS011;9357;49.900;8.208;2023-10-09T06:45:14;7.30;;;4.40;;
18455;SDS011;9357;49.900;8.208;2023-10-09T06:46:48;11.77;;;4.60;;
18455;SDS011;9357;49.900;8.208;2023-10-09T06:48:24;8.93;;;4.73;;
18455;SDS011;9357;49.900;8.208;2023-10-09T06:50:15;7.50;;;4.00;;
18455;SDS011;9357;49.900;8.208;2023-10-09T06:51:57;8.27;;;4.20;;
18455;SDS011;9357;49.900;8.208;2023-10-09T06:53:44;8.33;;;4.43;;
18455;SDS011;9357;49.900;8.208;2023-10-09T06:55:38;11.57;;;4.17;;
18455;SDS011;9357;49.900;8.208;2023-10-09T06:57:19;9.27;;;4.57;;
18455;SDS011;9357;49.900;8.208;2023-10-09T06:59:10;9.57;;;4.90;;
18455;SDS011;9357;49.900;8.208;2023-10-09T07:00:48;10.10;;;4.27;;
18455;SDS011;9357;49.900;8.208;2023-10-09T07:02:33;11.40;;;4.43;;
18455;SDS011;9357;49.900;8.208;2023-10-09T07:04:17;9.03;;;4.77;;
18455;SDS011;9357;49.900;8.208;2023-10-09T07:06:13;8.63;;;4.37;;
18455;SDS011;9357;49.900;8.208;2023-10-09T07:07:55;8.23;;;4.33;;
18455;SDS011;9357;49.900;8.208;2023-10-09T07:09:47;12.30;;;4.60;;
18455;SDS011;9357;49.900;8.208;2023-10-09T07:11:34;9.60;;;4.13;;
18455;SDS011;9357;49.900;8.208;2023-10-09T07:13:25;7.13;;;4.10;;
18455;SDS011;9357;49.900;8.208;2023-10-09T07:14:59;8.20;;;4.43;;
18455;SDS011;9357;49.900;8.208;2023-10-09T07:16:54;9.63;;;4.33;;
18455;SDS011;9357;49.900;8.208;2023-10-09T07:18:30;7.80;;;4.03;;
18455;SDS011;9357;49.900;8.208;2023-10-09T07:20:20;7.30;;;4.37;;
18455;SDS011;9357;49.900;8.208;2023-10-09T07:22:13;13.33;;;4.47;;
18455;SDS011;9357;49.900;8.208;2023-10-09T07:23:55;10.60;;;4.80;;
18455;SDS011;9357;49.900;8.208;2023-10-09T07:25:30;9.67;;;4.13;;
18455;SDS011;9357;49.900;8.208;2023-10-09T07:27:26;15.63;;;4.60;;
18455;SDS011;9357;49.900;8.208;2023-10-09T07:29:15;9.37;;;4.03;;
18455;SDS011;9357;49.900;8.208;2023-10-09T07:30:47;8.77;;;4.43;;
18455;SDS011;9357;49.900;8.208;2023-10-09T07:32:27;10.17;;;4.23;;
18455;SDS011;9357;49.900;8.208;2023-10-09T07:34:01;8.00;;;4.03;;
18455;SDS011;9357;49.900;8.208;2023-10-09T07:35:38;8.13;;;3.93;;
18455;SDS011;9357;49.900;8.208;2023-10-09T07:37:19;10.70;;;4.90;;
18455;SDS011;9357;49.900;8.208;2023-10-09T07:38:54;10.03;;;4.53;;
18455;SDS011;9357;49.900;8.208;2023-10-09T07:40:26;11.70;;;4.13;;
18455;SDS011;9357;49.900;8.208;2023-10-09T07:42:04;10.27;;;4.73;;
18455;SDS011;9357;49.900;8.208;2023-10-09T07:43:58;10.60;;;4.30;;
18455;SDS011;9357;49.900;8.208;2023-10-09T07:45:50;9.80;;;4.43;;
18455;SDS011;9357;49.900;8.208;2023-10-09T07:47:40;8.97;;;4.40;;
18455;SDS011;9357;49.900;8.208;2023-10-09T07:49:33;9.60;;;4.50;;
18455;SDS011;9357;49.900;8.208;2023-10-09T07:51:11;7.70;;;4.53;;
18455;SDS011;9357;49.900;8.208;2023-10-09T07:52:44;10.07;;;4.23;;
18455;SDS011;9357;49.900;8.208;2023-10-09T07:54:16;7.90;;;4.80;;
18455;SDS011;9357;49.900;8.208;2023-10-09T07:56:03;10.00;;;4.47;;
18455;SDS011;9357;49.900;8.208;2023-10-09T07:57:38;8.90;;;4.37;;
18455;SDS011;9357;49.900;8.208;2023-10-09T07:59:10;9.20;;;4.60;;
18455;SDS011;9357;49.900;8.208;2023-10-09T08:00:43;8.70;;;4.40;;
18455;SDS011;9357;49.900;8.208;2023-10-09T08:02:36;8.00;;;4.30;;
18455;SDS011;9357;49.900;8.208;2023-10-09T08:04:10;11.33;;;4.57;;
18455;SDS011;9357;49.900;8.208;2023-10-09T08:05:44;12.47;;;5.00;;
18455;SDS011;9357;49.900;8.208;2023-10-09T08:07:17;11.47;;;4.57;;
18455;SDS011;9357;49.900;8.208;2023-10-09T08:09:10;8.80;;;4.47;;
18455;SDS011;9357;49.900;8.208;2023-10-09T08:11:09;10.10;;;4.30;;
18455;SDS011;9357;49.900;8.208;2023-10-09T08:12:59;11.27;;;4.90;;
18455;SDS011;9357;49.900;8.208;2023-10-09T08:14:56;8.93;;;4.80;;
18455;SDS011;9357;49.900;8.208;2023-10-09T08:16:50;11.03;;;5.93;;
18455;SDS011;9357;49.900;8.208;2023-10-09T08:18:37;8.67;;;5.03;;
18455;SDS011;9357;49.900;8.208;2023-10-09T08:20:16;7.40;;;4.60;;
18455;SDS011;9357;49.900;8.208;2023-10-09T08:21:50;6.60;;;4.10;;
18455;SDS011;9357;49.900;8.208;2023-10-09T08:23:48;13.33;;;4.70;;
18455;SDS011;9357;49.900;8.208;2023-10-09T08:25:20;10.47;;;4.67;;
18455;SDS011;9357;49.900;8.208;2023-10-09T08:27:00;9.70;;;4.67;;
18455;SDS011;9357;49.900;8.208;2023-10-09T08:28:47;10.20;;;4.60;;
18455;SDS011;9357;49.900;8.208;2023-10-09T08:30:20;10.53;;;4.60;;
18455;SDS011;9357;49.900;8.208;2023-10-09T08:32:12;8.13;;;4.30;;
18455;SDS011;9357;49.900;8.208;2023-10-09T08:34:09;13.57;;;4.60;;
18455;SDS011;9357;49.900;8.208;2023-10-09T08:36:04;7.73;;;4.40;;
18455;SDS011;9357;49.900;8.208;2023-10-09T08:37:41;9.13;;;4.30;;
18455;SDS011;9357;49.900;8.208;2023-10-09T08:39:20;8.27;;;4.57;;
18455;SDS011;9357;49.900;8.208;2023-10-09T08:41:08;9.83;;;4.53;;
18455;SDS011;9357;49.900;8.208;2023-10-09T08:42:50;9.83;;;4.57;;
18455;SDS011;9357;49.900;8.208;2023-10-09T08:44:25;10.23;;;4.70;;
18455;SDS011;9357;49.900;8.208;2023-10-09T08:46:00;8.73;;;4.47;;
18455;SDS011;9357;49.900;8.208;2023-10-09T08:47:35;11.10;;;4.50;;
18455;SDS011;9357;49.900;8.208;2023-10-09T08:49:08;9.70;;;4.63;;
18455;SDS011;9357;49.900;8.208;2023-10-09T08:50:43;10.53;;;4.27;;
18455;SDS011;9357;49.900;8.208;2023-10-09T08:52:16;10.70;;;4.53;;
18455;SDS011;9357;49.900;8.208;2023-10-09T08:53:51;10.90;;;4.67;;
18455;SDS011;9357;49.900;8.208;2023-10-09T08:55:23;6.27;;;4.40;;
18455;SDS011;9357;49.900;8.208;2023-10-09T08:56:56;8.97;;;4.40;;
18455;SDS011;9357;49.900;8.208;2023-10-09T08:58:29;11.47;;;4.50;;
18455;SDS011;9357;49.900;8.208;2023-10-09T09:00:06;9.37;;;4.37;;
18455;SDS011;9357;49.900;8.208;2023-10-09T09:01:43;12.67;;;5.03;;
18455;SDS011;9357;49.900;8.208;2023-10-09T09:03:16;10.97;;;4.40;;
18455;SDS011;9357;49.900;8.208;2023-10-09T09:04:49;7.90;;;4.00;;
18455;SDS011;9357;49.900;8.208;2023-10-09T09:06:22;10.27;;;4.53;;
18455;SDS011;9357;49.900;8.208;2023-10-09T09:07:54;10.93;;;4.83;;
18455;SDS011;9357;49.900;8.208;2023-10-09T09:09:32;10.50;;;4.50;;
18455;SDS011;9357;49.900;8.208;2023-10-09T09:11:07;8.93;;;4.67;;
18455;SDS011;9357;49.900;8.208;2023-10-09T09:12:43;10.43;;;4.50;;
18455;SDS011;9357;49.900;8.208;2023-10-09T09:14:16;7.37;;;4.40;;
18455;SDS011;9357;49.900;8.208;2023-10-09T09:15:50;7.40;;;4.40;;
18455;SDS011;9357;49.900;8.208;2023-10-09T09:17:29;8.73;;;4.57;;
18455;SDS011;9357;49.900;8.208;2023-10-09T09:19:06;11.70;;;4.47;;
18455;SDS011;9357;49.900;8.208;2023-10-09T09:20:49;14.83;;;4.67;;
18455;SDS011;9357;49.900;8.208;2023-10-09T09:22:25;6.77;;;4.17;;
18455;SDS011;9357;49.900;8.208;2023-10-09T09:23:58;10.40;;;4.90;;
18455;SDS011;9357;49.900;8.208;2023-10-09T09:25:40;9.80;;;4.50;;
18455;SDS011;9357;49.900;8.208;2023-10-09T09:27:19;7.47;;;4.43;;
18455;SDS011;9357;49.900;8.208;2023-10-09T09:28:52;7.53;;;4.50;;
18455;SDS011;9357;49.900;8.208;2023-10-09T09:30:26;7.47;;;4.40;;
18455;SDS011;9357;49.900;8.208;2023-10-09T09:32:05;9.03;;;4.47;;
18455;SDS011;9357;49.900;8.208;2023-10-09T09:33:47;6.70;;;4.33;;
18455;SDS011;9357;49.900;8.208;2023-10-09T09:35:29;8.97;;;4.50;;
18455;SDS011;9357;49.900;8.208;2023-10-09T09:37:02;9.97;;;4.43;;
18455;SDS011;9357;49.900;8.208;2023-10-09T09:38:35;8.70;;;4.37;;
18455;SDS011;9357;49.900;8.208;2023-10-09T09:40:13;9.73;;;5.47;;
18455;SDS011;9357;49.900;8.208;2023-10-09T09:41:47;12.10;;;4.80;;
18455;SDS011;9357;49.900;8.208;2023-10-09T09:43:23;9.90;;;4.77;;
18455;SDS011;9357;49.900;8.208;2023-10-09T09:44:57;8.20;;;4.30;;
18455;SDS011;9357;49.900;8.208;2023-10-09T09:46:33;8.93;;;4.73;;
18455;SDS011;9357;49.900;8.208;2023-10-09T09:48:08;11.37;;;4.47;;
18455;SDS011;9357;49.900;8.208;2023-10-09T09:49:41;9.77;;;4.27;;
18455;SDS011;9357;49.900;8.208;2023-10-09T09:51:14;8.70;;;4.37;;
18455;SDS011;9357;49.900;8.208;2023-10-09T09:52:48;8.70;;;4.30;;
18455;SDS011;9357;49.900;8.208;2023-10-09T09:54:24;7.10;;;4.47;;
18455;SDS011;9357;49.900;8.208;2023-10-09T09:56:04;9.80;;;4.70;;
18455;SDS011;9357;49.900;8.208;2023-10-09T09:57:39;7.33;;;4.70;;
18455;SDS011;9357;49.900;8.208;2023-10-09T09:59:12;9.40;;;4.30;;
18455;SDS011;9357;49.900;8.208;2023-10-09T10:00:53;7.53;;;4.43;;
18455;SDS011;9357;49.900;8.208;2023-10-09T10:02:29;9.97;;;4.47;;
18455;SDS011;9357;49.900;8.208;2023-10-09T10:04:05;7.60;;;4.60;;